createdAt,value
2022-08-14T00:00:47.072Z,65.39
2022-08-14T00:03:29.235Z,65.56
2022-08-14T00:06:02.445Z,66.12
2022-08-14T00:08:51.008Z,66.50
2022-08-14T00:11:20.016Z,66.46
2022-08-14T00:13:52.890Z,66.38
2022-08-14T00:16:41.274Z,66.28
2022-08-14T00:19:19.565Z,67.15
2022-08-14T00:21:50.994Z,67.23
2022-08-14T00:24:23.352Z,67.29
2022-08-14T00:26:57.524Z,67.63
2022-08-14T00:29:39.835Z,67.45
2022-08-14T00:32:51.978Z,68.13
2022-08-14T00:35:01.502Z,68.05
2022-08-14T00:37:32.035Z,68.37
2022-08-14T00:40:01.077Z,68.99
2022-08-14T00:42:55.530Z,69.08
2022-08-14T00:45:21.046Z,69.33
2022-08-14T00:47:53.221Z,70.11
2022-08-14T00:50:23.796Z,70.18
2022-08-14T00:52:56.047Z,70.11
2022-08-14T00:55:27.876Z,69.96
2022-08-14T00:58:17.727Z,70.41
2022-08-14T01:00:57.532Z,70.83
2022-08-14T01:03:30.959Z,71.25
2022-08-14T01:06:01.110Z,71.85
2022-08-14T01:08:51.960Z,72.67
2022-08-14T01:11:31.554Z,72.25
2022-08-14T01:14:25.823Z,72.10
2022-08-14T01:16:55.609Z,72.26
2022-08-14T01:19:44.791Z,72.80
2022-08-14T01:22:19.204Z,72.63
2022-08-14T01:24:50.918Z,73.22
2022-08-14T01:27:24.448Z,73.96
2022-08-14T01:30:04.198Z,73.81
2022-08-14T01:32:45.198Z,74.03
2022-08-14T01:36:05.143Z,75.32
2022-08-14T01:38:13.644Z,75.77
2022-08-14T01:40:48.531Z,75.52
2022-08-14T01:43:22.162Z,76.03
2022-08-14T01:46:05.917Z,76.52
2022-08-14T01:48:37.107Z,76.55
2022-08-14T01:51:18.645Z,76.98
2022-08-14T01:53:55.617Z,76.77
2022-08-14T01:56:37.414Z,77.82
2022-08-14T01:59:18.225Z,77.99
2022-08-14T02:01:51.362Z,77.94
2022-08-14T02:04:55.223Z,78.04
2022-08-14T02:07:27.271Z,78.23
2022-08-14T02:10:07.923Z,78.88
2022-08-14T02:12:42.661Z,79.33
2022-08-14T02:15:12.878Z,78.97
2022-08-14T02:17:45.982Z,79.35
2022-08-14T02:20:23.385Z,80.22
2022-08-14T02:22:55.040Z,80.84
2022-08-14T02:25:29.986Z,80.62
2022-08-14T02:28:25.872Z,80.91
2022-08-14T02:30:52.366Z,81.22
2022-08-14T02:33:23.388Z,81.14
2022-08-14T02:36:04.943Z,81.05
2022-08-14T02:38:43.473Z,80.39
2022-08-14T02:41:15.307Z,80.70
2022-08-14T02:43:46.635Z,80.81
2022-08-14T02:46:20.641Z,81.25
2022-08-14T02:49:01.809Z,81.15
2022-08-14T02:51:36.587Z,81.53
2022-08-14T02:54:08.038Z,81.42
2022-08-14T02:57:16.442Z,82.54
2022-08-14T02:59:33.403Z,82.64
2022-08-14T03:02:04.655Z,82.49
2022-08-14T03:04:35.008Z,82.83
2022-08-14T03:07:07.851Z,83.61
2022-08-14T03:10:24.675Z,84.72
2022-08-14T03:12:32.077Z,85.61
2022-08-14T03:15:05.244Z,84.96
2022-08-14T03:17:40.999Z,85.16
2022-08-14T03:20:24.179Z,86.09
2022-08-14T03:22:53.181Z,85.71
2022-08-14T03:25:23.298Z,86.20
2022-08-14T03:27:58.065Z,86.68
2022-08-14T03:30:38.797Z,87.60
2022-08-14T03:33:13.556Z,87.64
2022-08-14T03:36:00.198Z,87.56
2022-08-14T03:39:14.562Z,87.29
2022-08-14T03:41:25.884Z,86.58
2022-08-14T03:45:19.337Z,86.95
2022-08-14T03:46:56.101Z,88.22
2022-08-14T03:49:28.337Z,88.04
2022-08-14T03:52:00.585Z,88.01
2022-08-14T03:54:31.246Z,88.28
2022-08-14T03:57:02.930Z,88.64
2022-08-14T03:59:35.393Z,89.29
2022-08-14T04:02:32.922Z,89.74
2022-08-14T04:04:55.072Z,89.40
2022-08-14T04:07:25.436Z,89.99
2022-08-14T04:09:57.146Z,91.02
2022-08-14T04:12:28.432Z,90.65
2022-08-14T04:14:58.826Z,90.82
2022-08-14T04:17:29.537Z,90.75
2022-08-14T04:20:07.531Z,91.20
2022-08-14T04:22:44.486Z,91.92
2022-08-14T04:25:14.094Z,92.76
2022-08-14T04:28:01.927Z,92.66
2022-08-14T04:30:38.666Z,91.87
2022-08-14T04:33:18.611Z,92.39
2022-08-14T04:35:56.754Z,93.32
2022-08-14T04:38:40.125Z,94.10
2022-08-14T04:41:30.360Z,94.34
2022-08-14T04:44:00.358Z,94.35
2022-08-14T04:46:56.044Z,94.53
2022-08-14T04:49:18.251Z,95.82
2022-08-14T04:51:56.204Z,96.28
2022-08-14T04:54:26.998Z,96.59
2022-08-14T04:56:57.207Z,97.01
2022-08-14T04:59:27.487Z,97.16
2022-08-14T05:02:00.389Z,97.54
2022-08-14T05:04:30.959Z,97.81
2022-08-14T05:06:59.480Z,98.11
2022-08-14T05:09:28.817Z,98.52
2022-08-14T05:12:58.581Z,98.65
2022-08-14T05:14:53.693Z,98.79
2022-08-14T05:17:32.156Z,98.97
2022-08-14T05:21:54.564Z,99.15
2022-08-14T05:23:03.603Z,99.44
2022-08-14T05:25:33.699Z,99.20
2022-08-14T05:28:16.556Z,99.72
2022-08-14T05:30:46.747Z,99.77
2022-08-14T05:33:19.844Z,100.00
2022-08-14T05:35:51.013Z,99.89
2022-08-14T05:38:30.984Z,99.41
2022-08-14T05:41:02.582Z,100.00
2022-08-14T05:43:41.008Z,99.97
2022-08-14T05:46:15.300Z,99.71
2022-08-14T05:48:49.380Z,99.35
2022-08-14T05:51:20.066Z,99.34
2022-08-14T05:54:01.616Z,99.29
2022-08-14T05:56:37.852Z,99.44
2022-08-14T05:59:07.190Z,100.00
2022-08-14T06:01:36.589Z,100.00
2022-08-14T06:04:07.468Z,100.00
2022-08-14T06:06:38.497Z,100.00
2022-08-14T06:09:10.030Z,100.00
2022-08-14T06:11:39.207Z,100.00
2022-08-14T06:14:21.102Z,100.00
2022-08-14T06:16:52.117Z,100.00
2022-08-14T06:19:23.610Z,100.00
2022-08-14T06:21:58.971Z,100.00
2022-08-14T06:24:34.956Z,100.00
2022-08-14T06:27:09.968Z,100.00
2022-08-14T06:29:40.912Z,100.00
2022-08-14T06:32:48.697Z,100.00
2022-08-14T06:35:12.465Z,100.00
2022-08-14T06:37:46.830Z,100.00
2022-08-14T06:40:27.101Z,100.00
2022-08-14T06:43:03.739Z,100.00
2022-08-14T06:45:37.426Z,100.00
2022-08-14T06:48:22.860Z,100.00
2022-08-14T06:50:55.176Z,100.00
2022-08-14T06:53:34.084Z,100.00
2022-08-14T06:56:05.075Z,100.00
2022-08-14T06:58:33.828Z,100.00
2022-08-14T07:01:26.855Z,100.00
2022-08-14T07:04:26.146Z,100.00
2022-08-14T07:07:00.736Z,100.00
2022-08-14T07:09:44.247Z,100.00
2022-08-14T07:12:54.851Z,100.00
2022-08-14T07:15:09.302Z,100.00
2022-08-14T07:17:52.168Z,100.00
2022-08-14T07:20:31.050Z,100.00
2022-08-14T07:23:08.346Z,100.00
2022-08-14T07:25:40.050Z,100.00
2022-08-14T07:28:20.499Z,100.00
2022-08-14T07:30:51.924Z,100.00
2022-08-14T07:33:24.688Z,100.00
2022-08-14T07:36:00.975Z,100.00
2022-08-14T07:38:37.547Z,100.00
2022-08-14T07:41:14.433Z,100.00
2022-08-14T07:43:47.298Z,100.00
2022-08-14T07:46:21.044Z,100.00
2022-08-14T07:48:50.200Z,100.00
2022-08-14T07:51:22.811Z,100.00
2022-08-14T07:53:56.792Z,100.00
2022-08-14T07:56:43.844Z,100.00
2022-08-14T07:59:16.443Z,100.00
2022-08-14T08:01:48.110Z,100.00
2022-08-14T08:04:26.937Z,100.00
2022-08-14T08:06:56.785Z,100.00
2022-08-14T08:09:33.000Z,100.00
2022-08-14T08:12:09.405Z,100.00
2022-08-14T08:14:56.701Z,100.00
2022-08-14T08:17:34.725Z,100.00
2022-08-14T08:20:15.192Z,100.00
2022-08-14T08:22:48.065Z,100.00
2022-08-14T08:25:20.026Z,99.56
2022-08-14T08:28:00.785Z,98.64
2022-08-14T08:30:45.099Z,96.07
2022-08-14T08:33:19.886Z,96.43
2022-08-14T08:35:50.608Z,93.36
2022-08-14T08:39:15.362Z,91.93
2022-08-14T08:41:13.956Z,90.20
2022-08-14T08:43:45.912Z,87.45
2022-08-14T08:46:21.500Z,85.74
2022-08-14T08:51:33.473Z,83.41
2022-08-14T08:54:11.851Z,83.77
2022-08-14T08:56:52.166Z,83.18
2022-08-14T08:59:30.874Z,82.65
2022-08-14T09:02:04.154Z,82.71
2022-08-14T09:04:45.393Z,82.14
2022-08-14T09:07:27.919Z,80.60
2022-08-14T09:09:59.243Z,79.80
2022-08-14T09:12:32.193Z,78.64
2022-08-14T09:15:12.326Z,78.15
2022-08-14T09:17:42.584Z,75.83
2022-08-14T09:20:14.145Z,73.76
2022-08-14T09:22:56.794Z,73.63
2022-08-14T09:25:59.038Z,72.66
2022-08-14T09:28:18.857Z,72.25
2022-08-14T09:30:54.861Z,72.29
2022-08-14T09:34:09.177Z,67.41
2022-08-14T09:37:17.300Z,65.88
2022-08-14T09:40:04.736Z,66.41
2022-08-14T09:42:57.756Z,66.19
2022-08-14T09:45:53.364Z,65.93
2022-08-14T09:48:30.203Z,60.80
2022-08-14T09:54:19.355Z,58.65
2022-08-14T09:56:46.015Z,58.73
2022-08-14T09:59:28.301Z,57.66
2022-08-14T10:01:59.658Z,57.55
2022-08-14T10:04:33.024Z,57.16
2022-08-14T10:07:05.341Z,55.84
2022-08-14T10:09:35.010Z,55.28
2022-08-14T10:12:18.719Z,53.64
2022-08-14T10:14:53.237Z,51.57
2022-08-14T10:17:34.594Z,49.52
2022-08-14T10:20:40.514Z,49.25
2022-08-14T10:23:12.708Z,49.57
2022-08-14T10:25:50.576Z,49.91
2022-08-14T10:29:03.659Z,45.92
2022-08-14T10:31:25.641Z,46.53
2022-08-14T10:34:13.124Z,47.69
2022-08-14T10:36:50.187Z,46.96
2022-08-14T10:39:31.115Z,46.88
2022-08-14T10:42:18.307Z,46.68
2022-08-14T10:44:52.498Z,45.20
2022-08-14T10:47:39.643Z,45.59
2022-08-14T10:50:14.769Z,46.07
2022-08-14T10:52:46.289Z,45.16
2022-08-14T10:55:19.477Z,46.40
2022-08-14T10:57:52.549Z,45.29
2022-08-14T11:00:30.083Z,44.81
2022-08-14T11:03:11.008Z,45.76
2022-08-14T11:05:45.275Z,45.09
2022-08-14T11:08:16.477Z,45.77
2022-08-14T11:10:49.211Z,45.64
2022-08-14T11:13:24.533Z,45.57
2022-08-14T11:15:55.883Z,44.98
2022-08-14T11:18:32.490Z,45.74
2022-08-14T11:21:11.044Z,45.85
2022-08-14T11:23:41.113Z,45.80
2022-08-14T11:26:14.172Z,45.16
2022-08-14T11:28:49.944Z,44.55
2022-08-14T11:31:23.847Z,43.72
2022-08-14T11:33:58.377Z,44.03
2022-08-14T11:36:57.235Z,42.94
2022-08-14T11:39:35.004Z,43.61
2022-08-14T11:42:56.239Z,43.66
2022-08-14T11:45:00.950Z,42.82
2022-08-14T11:47:34.788Z,41.23
2022-08-14T11:50:15.106Z,40.57
2022-08-14T11:53:04.533Z,40.58
2022-08-14T11:55:38.305Z,40.94
2022-08-14T11:58:11.303Z,40.75
2022-08-14T12:00:52.657Z,41.22
2022-08-14T12:03:27.053Z,41.29
2022-08-14T12:06:09.557Z,40.16
2022-08-14T12:08:59.804Z,40.32
2022-08-14T12:11:43.469Z,40.45
2022-08-14T12:14:30.252Z,40.23
2022-08-14T12:17:11.877Z,39.86
2022-08-14T12:19:53.998Z,39.90
2022-08-14T12:22:44.058Z,40.20
2022-08-14T12:25:20.416Z,40.45
2022-08-14T12:27:54.145Z,40.34
2022-08-14T12:30:42.427Z,40.44
2022-08-14T12:33:30.501Z,39.95
2022-08-14T12:36:06.066Z,40.28
2022-08-14T12:38:45.082Z,39.95
2022-08-14T12:41:22.161Z,39.49
2022-08-14T12:43:59.603Z,39.77
2022-08-14T12:46:31.645Z,40.01
2022-08-14T12:49:06.337Z,39.48
2022-08-14T12:51:35.652Z,39.33
2022-08-14T12:54:27.791Z,39.20
2022-08-14T12:57:09.273Z,39.35
2022-08-14T12:59:42.811Z,39.05
2022-08-14T13:02:25.296Z,38.07
2022-08-14T13:04:56.624Z,38.73
2022-08-14T13:07:32.578Z,38.97
2022-08-14T13:10:12.700Z,37.71
2022-08-14T13:13:15.108Z,36.92
2022-08-14T13:15:46.502Z,37.66
2022-08-14T13:18:18.029Z,36.78
2022-08-14T13:20:48.142Z,37.34
2022-08-14T13:23:31.762Z,36.13
2022-08-14T13:26:01.652Z,35.78
2022-08-14T13:28:41.314Z,36.13
2022-08-14T13:31:30.172Z,35.87
2022-08-14T13:34:01.231Z,35.20
2022-08-14T13:36:51.603Z,34.62
2022-08-14T13:39:22.081Z,34.18
2022-08-14T13:41:55.782Z,34.84
2022-08-14T13:44:29.468Z,34.96
2022-08-14T13:46:59.343Z,35.27
2022-08-14T13:49:29.267Z,34.94
2022-08-14T13:52:02.449Z,33.74
2022-08-14T13:54:37.679Z,34.09
2022-08-14T13:57:12.726Z,33.58
2022-08-14T13:59:48.056Z,33.17
2022-08-14T14:02:31.902Z,33.87
2022-08-14T14:05:07.625Z,33.73
2022-08-14T14:07:43.504Z,32.03
2022-08-14T14:10:14.613Z,32.52
2022-08-14T14:12:43.349Z,32.23
2022-08-14T14:15:16.886Z,32.65
2022-08-14T14:17:48.577Z,32.58
2022-08-14T14:20:35.126Z,31.71
2022-08-14T14:23:11.537Z,32.50
2022-08-14T14:25:51.192Z,32.89
2022-08-14T14:28:33.562Z,32.63
2022-08-14T14:31:05.961Z,32.91
2022-08-14T14:33:46.631Z,33.52
2022-08-14T14:36:22.239Z,32.97
2022-08-14T14:38:57.941Z,33.51
2022-08-14T14:41:37.891Z,32.63
2022-08-14T14:44:09.433Z,32.67
2022-08-14T14:46:51.035Z,32.46
2022-08-14T14:49:31.733Z,33.06
2022-08-14T14:52:23.148Z,33.30
2022-08-14T14:54:52.349Z,33.36
2022-08-14T14:57:21.207Z,33.06
2022-08-14T14:59:50.228Z,33.20
2022-08-14T15:02:36.518Z,32.62
2022-08-14T15:05:08.152Z,32.34
2022-08-14T15:07:37.825Z,32.21
2022-08-14T15:10:27.438Z,32.26
2022-08-14T15:13:00.134Z,32.25
2022-08-14T15:15:29.522Z,32.50
2022-08-14T15:18:02.921Z,31.81
2022-08-14T15:20:35.383Z,32.15
2022-08-14T15:23:11.881Z,32.02
2022-08-14T15:25:41.794Z,31.65
2022-08-14T15:28:13.131Z,31.24
2022-08-14T15:30:51.044Z,31.63
2022-08-14T15:34:33.332Z,31.39
2022-08-14T15:36:35.352Z,31.10
2022-08-14T15:39:05.342Z,31.49
2022-08-14T15:41:41.791Z,31.49
2022-08-14T15:44:25.513Z,31.42
2022-08-14T15:46:55.981Z,31.66
2022-08-14T15:49:33.130Z,32.40
2022-08-14T15:52:05.374Z,31.98
2022-08-14T15:54:35.110Z,32.03
2022-08-14T15:57:08.456Z,31.95
2022-08-14T15:59:56.464Z,32.36
2022-08-14T16:02:28.053Z,31.88
2022-08-14T16:04:58.966Z,31.79
2022-08-14T16:07:28.161Z,32.27
2022-08-14T16:10:25.342Z,32.01
2022-08-14T16:12:47.900Z,32.32
2022-08-14T16:15:17.980Z,32.69
2022-08-14T16:17:47.691Z,32.21
2022-08-14T16:20:42.118Z,33.13
2022-08-14T16:23:11.844Z,33.18
2022-08-14T16:25:59.274Z,32.77
2022-08-14T16:28:29.119Z,33.23
2022-08-14T16:30:58.465Z,33.22
2022-08-14T16:33:27.846Z,33.40
2022-08-14T16:39:14.116Z,33.16
2022-08-14T16:41:45.651Z,32.86
2022-08-14T16:44:33.625Z,32.85
2022-08-14T16:47:05.614Z,32.36
2022-08-14T16:50:05.040Z,32.40
2022-08-14T16:52:44.362Z,33.56
2022-08-14T16:55:17.903Z,33.76
2022-08-14T16:57:54.550Z,33.01
2022-08-14T17:00:32.845Z,33.02
2022-08-14T17:03:14.685Z,33.38
2022-08-14T17:05:46.928Z,33.83
2022-08-14T17:08:42.615Z,34.13
2022-08-14T17:11:12.564Z,33.79
2022-08-14T17:13:58.755Z,34.00
2022-08-14T17:16:37.656Z,34.30
2022-08-14T17:19:09.700Z,34.12
2022-08-14T17:21:47.066Z,34.82
2022-08-14T17:24:56.282Z,34.34
2022-08-14T17:27:10.550Z,34.38
2022-08-14T17:29:54.615Z,35.17
2022-08-14T17:32:29.409Z,35.32
2022-08-14T17:35:16.549Z,34.82
2022-08-14T17:37:55.592Z,35.03
2022-08-14T17:40:31.585Z,34.94
2022-08-14T17:43:02.372Z,35.09
2022-08-14T17:45:46.985Z,34.59
2022-08-14T17:49:14.472Z,34.85
2022-08-14T17:51:23.608Z,34.90
2022-08-14T17:54:02.694Z,34.96
2022-08-14T17:56:36.168Z,35.61
2022-08-14T17:59:07.453Z,35.61
2022-08-14T18:01:46.446Z,35.41
2022-08-14T18:04:27.964Z,35.59
2022-08-14T18:07:16.211Z,35.33
2022-08-14T18:09:57.406Z,35.56
2022-08-14T18:12:36.473Z,35.38
2022-08-14T18:15:14.470Z,35.38
2022-08-14T18:17:53.080Z,35.47
2022-08-14T18:21:39.752Z,35.79
2022-08-14T18:23:14.619Z,36.10
2022-08-14T18:25:52.161Z,36.62
2022-08-14T18:28:48.049Z,36.94
2022-08-14T18:31:43.624Z,36.85
2022-08-14T18:34:31.627Z,37.38
2022-08-14T18:37:16.919Z,37.41
2022-08-14T18:40:01.979Z,37.35
2022-08-14T18:42:47.694Z,37.71
2022-08-14T18:45:28.847Z,38.24
2022-08-14T18:48:50.656Z,38.51
2022-08-14T18:51:46.245Z,38.36
2022-08-14T18:54:33.225Z,38.91
2022-08-14T18:57:05.611Z,39.52
2022-08-14T18:59:43.124Z,39.83
2022-08-14T19:02:44.485Z,40.22
2022-08-14T19:05:50.216Z,40.16
2022-08-14T19:08:27.130Z,40.55
2022-08-14T19:10:59.484Z,40.76
2022-08-14T19:13:44.579Z,40.79
2022-08-14T19:16:22.948Z,41.44
2022-08-14T19:19:00.079Z,42.20
2022-08-14T19:21:33.251Z,42.53
2022-08-14T19:24:29.455Z,42.90
2022-08-14T19:27:19.346Z,42.87
2022-08-14T19:29:51.589Z,43.36
2022-08-14T19:32:40.878Z,43.43
2022-08-14T19:35:50.132Z,43.74
2022-08-14T19:38:59.551Z,43.77
2022-08-14T19:41:34.588Z,43.93
2022-08-14T19:44:14.426Z,43.84
2022-08-14T19:47:01.018Z,44.22
2022-08-14T19:50:08.537Z,44.47
2022-08-14T19:52:35.255Z,44.59
2022-08-14T19:55:18.481Z,44.21
2022-08-14T19:57:52.418Z,44.60
2022-08-14T20:00:30.170Z,44.30
2022-08-14T20:03:11.174Z,44.88
2022-08-14T20:05:45.510Z,44.57
2022-08-14T20:09:05.513Z,44.71
2022-08-14T20:11:15.008Z,44.96
2022-08-14T20:14:02.106Z,45.02
2022-08-14T20:16:42.818Z,45.56
2022-08-14T20:19:23.225Z,45.17
2022-08-14T20:21:58.427Z,45.51
2022-08-14T20:24:41.126Z,45.99
2022-08-14T20:27:40.023Z,46.21
2022-08-14T20:30:29.769Z,46.35
2022-08-14T20:33:07.478Z,46.33
2022-08-14T20:35:44.389Z,46.29
2022-08-14T20:38:31.578Z,46.79
2022-08-14T20:41:06.635Z,47.13
2022-08-14T20:43:58.515Z,47.24
2022-08-14T20:46:33.732Z,47.11
2022-08-14T20:49:10.962Z,47.69
2022-08-14T20:51:54.660Z,47.95
2022-08-14T20:54:34.008Z,48.21
2022-08-14T20:57:11.886Z,48.37
2022-08-14T20:59:46.573Z,48.38
2022-08-14T21:02:34.764Z,48.63
2022-08-14T21:05:19.770Z,48.71
2022-08-14T21:07:50.841Z,49.14
2022-08-14T21:10:36.161Z,49.06
2022-08-14T21:14:09.074Z,49.74
2022-08-14T21:16:33.604Z,49.60
2022-08-14T21:19:01.921Z,49.90
2022-08-14T21:21:40.687Z,49.96
2022-08-14T21:24:46.971Z,50.46
2022-08-14T21:27:20.457Z,52.07
2022-08-14T21:29:55.372Z,53.95
2022-08-14T21:32:50.092Z,55.42
2022-08-14T21:35:23.324Z,56.37
2022-08-14T21:37:52.697Z,56.73
2022-08-14T21:40:42.383Z,57.59
2022-08-14T21:43:18.332Z,58.53
2022-08-14T21:45:51.740Z,58.23
2022-08-14T21:48:25.053Z,58.17
2022-08-14T21:51:01.136Z,58.27
2022-08-14T21:53:59.190Z,59.05
2022-08-14T21:56:37.230Z,59.51
2022-08-14T21:59:18.112Z,60.90
2022-08-14T22:02:00.142Z,60.46
2022-08-14T22:04:40.097Z,61.06
2022-08-14T22:07:16.960Z,61.03
2022-08-14T22:09:55.349Z,62.39
2022-08-14T22:12:58.160Z,65.17
2022-08-14T22:15:19.735Z,69.05
2022-08-14T22:17:54.081Z,72.78
2022-08-14T22:20:25.594Z,78.51
2022-08-14T22:22:57.289Z,82.87
2022-08-14T22:25:34.081Z,84.69
2022-08-14T22:28:05.870Z,88.73
2022-08-14T22:30:35.847Z,90.09
2022-08-14T22:33:05.505Z,88.61
2022-08-14T22:35:34.504Z,89.41
2022-08-14T22:38:37.740Z,90.65
2022-08-14T22:41:15.132Z,89.82
2022-08-14T22:43:44.033Z,94.58
2022-08-14T22:46:20.596Z,95.06
2022-08-14T22:48:51.710Z,95.33
2022-08-14T22:51:26.123Z,95.29
2022-08-14T22:54:00.088Z,96.42
2022-08-14T22:56:30.819Z,97.91
2022-08-14T22:59:02.540Z,98.98
2022-08-14T23:01:55.596Z,98.30
2022-08-14T23:04:35.519Z,99.11
2022-08-14T23:07:21.957Z,99.21
2022-08-14T23:10:32.190Z,99.66
2022-08-14T23:12:54.849Z,100.00
2022-08-14T23:15:28.828Z,100.00
2022-08-14T23:17:59.516Z,100.00
2022-08-14T23:20:29.881Z,100.00
2022-08-14T23:22:59.366Z,100.00
2022-08-14T23:25:57.643Z,100.00
2022-08-14T23:28:33.940Z,100.00
2022-08-14T23:31:14.865Z,100.00
2022-08-14T23:34:02.906Z,100.00
2022-08-14T23:36:53.271Z,100.00
2022-08-14T23:39:30.423Z,100.00
2022-08-14T23:42:05.392Z,100.00
2022-08-14T23:44:38.132Z,100.00
2022-08-14T23:47:10.816Z,100.00
2022-08-14T23:50:00.719Z,100.00
2022-08-14T23:52:55.633Z,100.00
2022-08-14T23:55:20.620Z,100.00
2022-08-14T23:57:58.255Z,100.00
